Time;durP1;ratioP1;P1;durP2;ratioP2;P2;SDS_P1;SDS_P2;PMS_P1;PMS_P2;Temp;Humidity;BMP_temperature;BMP_pressure;BME280_temperature;BME280_humidity;BME280_pressure;Samples;Min_cycle;Max_cycle;Signal;HPM_P1;HPM_P2
2021/04/16 00:01:32;;;;;;;;;;;;;;;;;;6146054;23;787;-59
2021/04/16 00:03:57;;;;;;;;;;;;;;;;;;6145895;23;940;-59
2021/04/16 00:06:22;;;;;;;;;;;;;;;;;;6146000;23;1881;-58
2021/04/16 00:08:48;;;;;;;;;;;;;;;;;;6145780;23;834;-59
2021/04/16 00:11:15;;;;;;;;;;;;;;;;;;6147076;23;845;-58
2021/04/16 00:13:40;;;;;;;;;;;;;;;;;;6120990;23;858;-59
2021/04/16 00:16:07;;;;;;;;;;;;;;;;;;6146294;23;798;-59
2021/04/16 00:18:32;;;;;;;;;;;;;;;;;;6120103;23;1278;-59
2021/04/16 00:20:58;;;;;;;;;;;;;;;;;;6146448;23;969;-59
2021/04/16 00:23:24;;;;;;;;;;;;;;;;;;6146299;23;845;-59
2021/04/16 00:25:49;;;;;;;;;;;;;;;;;;6146295;23;1881;-59
2021/04/16 00:28:15;;;;;;;;;;;;;;;;;;6146818;23;970;-60
2021/04/16 00:30:48;;;;;;;;;;;;;;;;;;6146632;23;795;-59
2021/04/16 00:33:14;;;;;;;;;;;;;;;;;;6147139;23;825;-59
2021/04/16 00:35:40;;;;;;;;;;;;;;;;;;6146368;23;919;-59
2021/04/16 00:38:05;;;;;;;;;;;;;;;;;;6145611;23;861;-59
2021/04/16 00:40:33;;;;;;;;;;;;;;;;;;6145906;23;925;-59
2021/04/16 00:43:00;;;;;;;;;;;;;;;;;;6122389;23;843;-59
2021/04/16 00:45:27;;;;;;;;;;;;;;;;;;6145745;23;1877;-59
2021/04/16 00:47:54;;;;;;;;;;;;;;;;;;6145802;23;823;-59
2021/04/16 00:50:21;;;;;;;;;;;;;;;;;;6146242;23;802;-59
2021/04/16 00:52:47;;;;;;;;;;;;;;;;;;6119781;23;850;-60
2021/04/16 00:55:12;;;;;;;;;;;;;;;;;;6146530;23;874;-59
2021/04/16 00:57:38;;;;;;;;;;;;;;;;;;6145392;23;858;-59
2021/04/16 01:00:04;;;;;;;;;;;;;;;;;;6146136;23;886;-59
2021/04/16 01:02:29;;;;;;;;;;;;;;;;;;6145935;23;917;-59
2021/04/16 01:04:55;;;;;;;;;;;;;;;;;;6145604;23;847;-59
2021/04/16 01:07:21;;;;;;;;;;;;;;;;;;6145333;23;1927;-59
2021/04/16 01:09:47;;;;;;;;;;;;;;;;;;6146250;23;807;-60
2021/04/16 01:12:13;;;;;;;;;;;;;;;;;;6122885;23;918;-59
2021/04/16 01:14:39;;;;;;;;;;;;;;;;;;6147762;23;854;-59
2021/04/16 01:17:06;;;;;;;;;;;;;;;;;;6147944;23;782;-59
2021/04/16 01:19:53;;;;;;;;;;;;;;;;;;6147581;23;858;-60
2021/04/16 01:22:23;;;;;;;;;;;;;;;;;;6148074;23;807;-59
2021/04/16 01:24:48;;;;;;;;;;;;;;;;;;6148031;23;886;-58
2021/04/16 01:27:13;;;;;;;;;;;;;;;;;;6148370;23;1945;-59
2021/04/16 01:29:40;;;;;;;;;;;;;;;;;;6147295;23;862;-59
2021/04/16 01:32:07;;;;;;;;;;;;;;;;;;6146934;23;791;-58
2021/04/16 01:34:32;;;;;;;;;;;;;;;;;;6147250;23;827;-59
2021/04/16 01:36:58;;;;;;;;;;;;;;;;;;6147681;23;644;-59
2021/04/16 01:39:24;;;;;;;;;;;;;;;;;;6147376;23;862;-59
2021/04/16 01:41:49;;;;;;;;;;;;;;;;;;6147693;23;846;-58
2021/04/16 01:44:17;;;;;;;;;;;;;;;;;;6150286;23;1094;-60
2021/04/16 01:46:55;;;;;;;;;;;;;;;;;;6148222;23;1874;-59
2021/04/16 01:49:21;;;;;;;;;;;;;;;;;;6147147;23;814;-59
2021/04/16 01:51:47;;;;;;;;;;;;;;;;;;6147695;23;870;-59
2021/04/16 01:54:15;;;;;;;;;;;;;;;;;;6148716;23;790;-59
2021/04/16 01:56:42;;;;;;;;;;;;;;;;;;6147465;23;779;-59
2021/04/16 01:59:08;;;;;;;;;;;;;;;;;;6121210;23;933;-59
2021/04/16 02:01:34;;;;;;;;;;;;;;;;;;6146638;23;810;-59
2021/04/16 02:03:59;;;;;;;;;;;;;;;;;;6146841;23;838;-59
2021/04/16 02:06:24;;;;;;;;;;;;;;;;;;6146768;23;1873;-59
2021/04/16 02:08:50;;;;;;;;;;;;;;;;;;6146858;23;810;-59
2021/04/16 02:11:15;;;;;;;;;;;;;;;;;;6146528;23;897;-59
2021/04/16 02:13:41;;;;;;;;;;;;;;;;;;6148244;23;881;-59
2021/04/16 02:16:07;;;;;;;;;;;;;;;;;;6147484;23;814;-59
2021/04/16 02:18:32;;;;;;;;;;;;;;;;;;6147285;23;818;-59
2021/04/16 02:20:58;;;;;;;;;;;;;;;;;;6147195;23;854;-59
2021/04/16 02:23:23;;;;;;;;;;;;;;;;;;6146998;23;826;-59
2021/04/16 02:25:48;;;;;;;;;;;;;;;;;;6146887;23;1919;-59
2021/04/16 02:28:14;;;;;;;;;;;;;;;;;;6148371;23;950;-58
2021/04/16 02:30:39;;;;;;;;;;;;;;;;;;6147131;23;798;-59
2021/04/16 02:33:05;;;;;;;;;;;;;;;;;;6147354;23;807;-59
2021/04/16 02:35:31;;;;;;;;;;;;;;;;;;6147637;23;813;-59
2021/04/16 02:37:56;;;;;;;;;;;;;;;;;;6146800;23;791;-59
2021/04/16 02:40:23;;;;;;;;;;;;;;;;;;6146510;23;866;-59
2021/04/16 02:42:52;;;;;;;;;;;;;;;;;;6147079;23;810;-59
2021/04/16 02:45:18;;;;;;;;;;;;;;;;;;6122521;23;2265;-59
2021/04/16 02:47:44;;;;;;;;;;;;;;;;;;6147246;23;862;-59
2021/04/16 02:50:12;;;;;;;;;;;;;;;;;;6146552;23;974;-59
2021/04/16 02:52:38;;;;;;;;;;;;;;;;;;6146783;23;901;-59
2021/04/16 02:55:04;;;;;;;;;;;;;;;;;;6146294;23;830;-59
2021/04/16 02:57:29;;;;;;;;;;;;;;;;;;6146387;23;858;-59
2021/04/16 02:59:54;;;;;;;;;;;;;;;;;;6145796;23;870;-59
2021/04/16 03:02:20;;;;;;;;;;;;;;;;;;6146700;23;886;-59
2021/04/16 03:04:45;;;;;;;;;;;;;;;;;;6146933;23;834;-60
2021/04/16 03:07:11;;;;;;;;;;;;;;;;;;6147387;23;1885;-59
2021/04/16 03:09:36;;;;;;;;;;;;;;;;;;6145006;23;818;-59
2021/04/16 03:12:02;;;;;;;;;;;;;;;;;;6145967;23;886;-59
2021/04/16 03:14:27;;;;;;;;;;;;;;;;;;6145873;23;668;-59
2021/04/16 03:16:52;;;;;;;;;;;;;;;;;;6146286;23;862;-59
2021/04/16 03:19:18;;;;;;;;;;;;;;;;;;6146721;23;791;-59
2021/04/16 03:21:43;;;;;;;;;;;;;;;;;;6147100;23;807;-59
2021/04/16 03:24:09;;;;;;;;;;;;;;;;;;6145642;23;771;-59
2021/04/16 03:26:34;;;;;;;;;;;;;;;;;;6146584;23;1865;-59
2021/04/16 03:29:00;;;;;;;;;;;;;;;;;;6119745;23;825;-61
2021/04/16 03:31:27;;;;;;;;;;;;;;;;;;6146077;23;786;-59
2021/04/16 03:33:53;;;;;;;;;;;;;;;;;;6145922;23;807;-59
2021/04/16 03:36:18;;;;;;;;;;;;;;;;;;6146490;23;755;-59
2021/04/16 03:38:45;;;;;;;;;;;;;;;;;;6120634;23;904;-59
2021/04/16 03:41:10;;;;;;;;;;;;;;;;;;6120983;23;782;-59
2021/04/16 03:43:36;;;;;;;;;;;;;;;;;;6146206;23;850;-59
2021/04/16 03:46:01;;;;;;;;;;;;;;;;;;6148636;23;1881;-59
2021/04/16 03:48:27;;;;;;;;;;;;;;;;;;6146359;23;910;-60
2021/04/16 03:50:53;;;;;;;;;;;;;;;;;;6144740;23;1192;-60
2021/04/16 03:53:18;;;;;;;;;;;;;;;;;;6145488;23;803;-60
2021/04/16 03:55:44;;;;;;;;;;;;;;;;;;6147124;23;905;-59
2021/04/16 03:58:11;;;;;;;;;;;;;;;;;;6146371;23;862;-59
2021/04/16 04:00:38;;;;;;;;;;;;;;;;;;6146035;23;877;-59
2021/04/16 04:03:03;;;;;;;;;;;;;;;;;;6145430;23;830;-59
2021/04/16 04:05:29;;;;;;;;;;;;;;;;;;6145307;23;1889;-59
2021/04/16 04:07:54;;;;;;;;;;;;;;;;;;6145458;23;830;-59
2021/04/16 04:10:22;;;;;;;;;;;;;;;;;;6145787;23;855;-59
2021/04/16 04:12:47;;;;;;;;;;;;;;;;;;6145678;23;830;-59
2021/04/16 04:15:13;;;;;;;;;;;;;;;;;;6146425;23;909;-59
2021/04/16 04:17:39;;;;;;;;;;;;;;;;;;6146117;23;783;-60
2021/04/16 04:20:06;;;;;;;;;;;;;;;;;;6146090;23;849;-59
2021/04/16 04:22:31;;;;;;;;;;;;;;;;;;6119447;23;1146;-59
2021/04/16 04:24:56;;;;;;;;;;;;;;;;;;6146458;23;866;-59
2021/04/16 04:27:22;;;;;;;;;;;;;;;;;;6145966;23;1922;-59
2021/04/16 04:29:47;;;;;;;;;;;;;;;;;;6120253;23;1314;-59
2021/04/16 04:32:13;;;;;;;;;;;;;;;;;;6147387;23;775;-59
2021/04/16 04:34:39;;;;;;;;;;;;;;;;;;6146360;23;807;-59
2021/04/16 04:37:05;;;;;;;;;;;;;;;;;;6145258;23;795;-59
2021/04/16 04:39:33;;;;;;;;;;;;;;;;;;6145964;23;834;-58
2021/04/16 04:41:59;;;;;;;;;;;;;;;;;;6146050;23;656;-58
2021/04/16 04:44:24;;;;;;;;;;;;;;;;;;6146522;23;885;-59
2021/04/16 04:46:50;;;;;;;;;;;;;;;;;;6149853;23;1918;-59
2021/04/16 04:49:16;;;;;;;;;;;;;;;;;;6147654;23;902;-59
2021/04/16 04:51:42;;;;;;;;;;;;;;;;;;6148312;23;815;-59
2021/04/16 04:54:08;;;;;;;;;;;;;;;;;;6148206;23;949;-59
2021/04/16 04:56:33;;;;;;;;;;;;;;;;;;6147894;23;811;-59
2021/04/16 04:58:59;;;;;;;;;;;;;;;;;;6147911;23;870;-59
2021/04/16 05:01:24;;;;;;;;;;;;;;;;;;6147670;23;799;-59
2021/04/16 05:03:49;;;;;;;;;;;;;;;;;;6147907;23;909;-59
2021/04/16 05:06:15;;;;;;;;;;;;;;;;;;6121131;23;1929;-59
2021/04/16 05:08:40;;;;;;;;;;;;;;;;;;6149143;23;858;-58
2021/04/16 05:11:08;;;;;;;;;;;;;;;;;;6147845;23;866;-59
2021/04/16 05:13:33;;;;;;;;;;;;;;;;;;6121697;23;1287;-59
2021/04/16 05:15:58;;;;;;;;;;;;;;;;;;6121028;23;1132;-59
2021/04/16 05:18:24;;;;;;;;;;;;;;;;;;6146788;23;783;-58
2021/04/16 05:20:49;;;;;;;;;;;;;;;;;;6120725;23;891;-59
2021/04/16 05:23:15;;;;;;;;;;;;;;;;;;6148321;23;857;-60
2021/04/16 05:25:40;;;;;;;;;;;;;;;;;;6122148;23;1908;-59
2021/04/16 05:28:05;;;;;;;;;;;;;;;;;;6147859;23;818;-59
2021/04/16 05:30:31;;;;;;;;;;;;;;;;;;6148027;23;795;-58
2021/04/16 05:32:56;;;;;;;;;;;;;;;;;;6147009;23;893;-58
2021/04/16 05:35:22;;;;;;;;;;;;;;;;;;6146294;23;857;-59
2021/04/16 05:37:48;;;;;;;;;;;;;;;;;;6147083;23;897;-59
2021/04/16 05:40:14;;;;;;;;;;;;;;;;;;6148498;23;854;-59
2021/04/16 05:42:39;;;;;;;;;;;;;;;;;;6147408;23;850;-59
2021/04/16 05:45:05;;;;;;;;;;;;;;;;;;6121168;23;1195;-59
2021/04/16 05:47:31;;;;;;;;;;;;;;;;;;6147431;23;827;-59
2021/04/16 05:49:56;;;;;;;;;;;;;;;;;;6147471;23;846;-58
2021/04/16 05:52:22;;;;;;;;;;;;;;;;;;6147042;23;854;-59
2021/04/16 05:54:47;;;;;;;;;;;;;;;;;;6147148;23;830;-59
2021/04/16 05:57:12;;;;;;;;;;;;;;;;;;6147791;23;775;-59
2021/04/16 05:59:38;;;;;;;;;;;;;;;;;;6147096;23;818;-59
2021/04/16 06:02:20;;;;;;;;;;;;;;;;;;6120932;23;1299;-59
2021/04/16 06:04:46;;;;;;;;;;;;;;;;;;6147334;23;834;-59
2021/04/16 06:07:12;;;;;;;;;;;;;;;;;;6148284;23;1881;-58
2021/04/16 06:09:37;;;;;;;;;;;;;;;;;;6147127;23;767;-60
2021/04/16 06:12:03;;;;;;;;;;;;;;;;;;6147380;23;791;-60
2021/04/16 06:14:28;;;;;;;;;;;;;;;;;;6145542;23;1142;-59
2021/04/16 06:16:54;;;;;;;;;;;;;;;;;;6146879;23;834;-60
2021/04/16 06:19:19;;;;;;;;;;;;;;;;;;6147567;23;823;-60
2021/04/16 06:21:45;;;;;;;;;;;;;;;;;;6148316;23;826;-59
2021/04/16 06:24:11;;;;;;;;;;;;;;;;;;6148742;23;869;-60
2021/04/16 06:26:36;;;;;;;;;;;;;;;;;;6147297;23;1912;-59
2021/04/16 06:29:03;;;;;;;;;;;;;;;;;;6147350;23;877;-58
2021/04/16 06:31:30;;;;;;;;;;;;;;;;;;6146922;23;803;-60
2021/04/16 06:33:56;;;;;;;;;;;;;;;;;;6147352;23;862;-59
2021/04/16 06:36:21;;;;;;;;;;;;;;;;;;6147258;23;811;-59
2021/04/16 06:38:47;;;;;;;;;;;;;;;;;;6147554;23;964;-70
2021/04/16 06:41:21;;;;;;;;;;;;;;;;;;6121440;23;1157;-60
2021/04/16 06:43:48;;;;;;;;;;;;;;;;;;6147230;23;881;-61
2021/04/16 06:46:25;;;;;;;;;;;;;;;;;;6147687;23;1955;-59
2021/04/16 06:48:51;;;;;;;;;;;;;;;;;;6120916;23;894;-60
2021/04/16 06:51:20;;;;;;;;;;;;;;;;;;6146575;23;811;-61
2021/04/16 06:53:45;;;;;;;;;;;;;;;;;;6147323;23;878;-61
2021/04/16 06:56:12;;;;;;;;;;;;;;;;;;6147929;23;850;-60
2021/04/16 06:58:49;;;;;;;;;;;;;;;;;;6147016;23;857;-61
2021/04/16 07:01:33;;;;;;;;;;;;;;;;;;6147168;23;878;-60
2021/04/16 07:04:01;;;;;;;;;;;;;;;;;;6146314;23;1258;-61
2021/04/16 07:06:28;;;;;;;;;;;;;;;;;;6146799;23;1931;-61
2021/04/16 07:09:00;;;;;;;;;;;;;;;;;;6146682;23;811;-60
2021/04/16 07:11:29;;;;;;;;;;;;;;;;;;6146492;23;890;-60
2021/04/16 07:13:56;;;;;;;;;;;;;;;;;;6146905;23;834;-61
2021/04/16 07:16:23;;;;;;;;;;;;;;;;;;6147343;23;831;-59
2021/04/16 07:18:51;;;;;;;;;;;;;;;;;;6147094;23;830;-61
2021/04/16 07:21:18;;;;;;;;;;;;;;;;;;6146408;23;930;-59
2021/04/16 07:23:45;;;;;;;;;;;;;;;;;;6148065;23;798;-60
2021/04/16 07:26:29;;;;;;;;;;;;;;;;;;6148196;23;1913;-60
2021/04/16 07:28:57;;;;;;;;;;;;;;;;;;6146449;23;842;-60
2021/04/16 07:31:24;;;;;;;;;;;;;;;;;;6146255;23;798;-60
2021/04/16 07:33:50;;;;;;;;;;;;;;;;;;6147058;23;837;-59
2021/04/16 07:36:20;;;;;;;;;;;;;;;;;;6147260;23;795;-60
2021/04/16 07:39:05;;;;;;;;;;;;;;;;;;6146904;23;838;-62
2021/04/16 07:41:36;;;;;;;;;;;;;;;;;;6145978;23;854;-60
2021/04/16 07:44:02;;;;;;;;;;;;;;;;;;6146903;23;802;-61
2021/04/16 07:46:28;;;;;;;;;;;;;;;;;;6146631;23;1952;-61
2021/04/16 07:49:13;;;;;;;;;;;;;;;;;;6120810;23;827;-60
2021/04/16 07:51:38;;;;;;;;;;;;;;;;;;6146537;23;770;-61
2021/04/16 07:54:13;;;;;;;;;;;;;;;;;;6147098;23;878;-59
2021/04/16 07:56:39;;;;;;;;;;;;;;;;;;6146604;23;850;-61
2021/04/16 07:59:10;;;;;;;;;;;;;;;;;;6146748;23;881;-60
2021/04/16 08:01:38;;;;;;;;;;;;;;;;;;6146130;23;870;-60
2021/04/16 08:04:06;;;;;;;;;;;;;;;;;;6146442;23;885;-60
2021/04/16 08:06:37;;;;;;;;;;;;;;;;;;6146595;23;1962;-60
2021/04/16 08:09:05;;;;;;;;;;;;;;;;;;6146389;23;787;-61
2021/04/16 08:11:32;;;;;;;;;;;;;;;;;;6146481;23;791;-61
2021/04/16 08:13:59;;;;;;;;;;;;;;;;;;6146882;23;830;-60
2021/04/16 08:16:27;;;;;;;;;;;;;;;;;;6120220;23;1437;-59
2021/04/16 08:19:02;;;;;;;;;;;;;;;;;;6119512;23;1367;-61
2021/04/16 08:21:27;;;;;;;;;;;;;;;;;;6145506;23;838;-60
2021/04/16 08:23:53;;;;;;;;;;;;;;;;;;6146051;23;715;-61
2021/04/16 08:26:19;;;;;;;;;;;;;;;;;;6146104;23;1893;-61
2021/04/16 08:28:47;;;;;;;;;;;;;;;;;;6121270;23;1176;-63
2021/04/16 08:31:15;;;;;;;;;;;;;;;;;;6147047;23;953;-61
2021/04/16 08:33:43;;;;;;;;;;;;;;;;;;6146613;23;783;-61
2021/04/16 08:36:24;;;;;;;;;;;;;;;;;;6144666;23;811;-61
2021/04/16 08:38:50;;;;;;;;;;;;;;;;;;6146980;23;806;-61
2021/04/16 08:41:15;;;;;;;;;;;;;;;;;;6147048;23;889;-61
2021/04/16 08:43:46;;;;;;;;;;;;;;;;;;6121207;23;802;-62
2021/04/16 08:46:24;;;;;;;;;;;;;;;;;;6146958;23;1919;-62
2021/04/16 08:48:53;;;;;;;;;;;;;;;;;;6146863;23;890;-61
2021/04/16 08:51:21;;;;;;;;;;;;;;;;;;6146412;23;803;-62
2021/04/16 08:53:46;;;;;;;;;;;;;;;;;;6146109;23;847;-60
2021/04/16 08:56:15;;;;;;;;;;;;;;;;;;6147330;23;815;-60
2021/04/16 08:58:41;;;;;;;;;;;;;;;;;;6147134;23;811;-61
2021/04/16 09:01:06;;;;;;;;;;;;;;;;;;6145700;23;818;-62
2021/04/16 09:03:38;;;;;;;;;;;;;;;;;;6119501;23;1267;-62
2021/04/16 09:06:03;;;;;;;;;;;;;;;;;;6145966;23;1928;-62
2021/04/16 09:08:37;;;;;;;;;;;;;;;;;;6146886;23;811;-60
2021/04/16 09:11:03;;;;;;;;;;;;;;;;;;6146675;23;851;-60
2021/04/16 09:13:38;;;;;;;;;;;;;;;;;;6120483;23;1020;-60
2021/04/16 09:16:19;;;;;;;;;;;;;;;;;;6146313;23;830;-60
2021/04/16 09:18:48;;;;;;;;;;;;;;;;;;6121502;23;909;-60
2021/04/16 09:21:27;;;;;;;;;;;;;;;;;;6146352;23;802;-60
2021/04/16 09:23:54;;;;;;;;;;;;;;;;;;6119239;23;1362;-60
2021/04/16 09:26:38;;;;;;;;;;;;;;;;;;6145742;23;1876;-61
2021/04/16 09:29:03;;;;;;;;;;;;;;;;;;6145487;23;859;-60
2021/04/16 09:31:40;;;;;;;;;;;;;;;;;;6145918;23;826;-59
2021/04/16 09:34:18;;;;;;;;;;;;;;;;;;6147233;23;786;-60
2021/04/16 09:36:48;;;;;;;;;;;;;;;;;;6148190;23;861;-61
2021/04/16 09:39:34;;;;;;;;;;;;;;;;;;6122846;23;1307;-59
2021/04/16 09:41:59;;;;;;;;;;;;;;;;;;6147095;23;1161;-59
2021/04/16 09:44:25;;;;;;;;;;;;;;;;;;6147552;23;870;-60
2021/04/16 09:46:50;;;;;;;;;;;;;;;;;;6147567;23;1940;-60
2021/04/16 09:49:24;;;;;;;;;;;;;;;;;;6146778;23;1116;-60
2021/04/16 09:51:51;;;;;;;;;;;;;;;;;;6147575;23;972;-60
2021/04/16 09:54:16;;;;;;;;;;;;;;;;;;6147598;23;925;-60
2021/04/16 09:57:00;;;;;;;;;;;;;;;;;;6147875;23;806;-60
2021/04/16 09:59:29;;;;;;;;;;;;;;;;;;6146392;23;790;-61
2021/04/16 10:02:18;;;;;;;;;;;;;;;;;;6147009;23;857;-60
2021/04/16 10:05:02;;;;;;;;;;;;;;;;;;6147922;23;889;-60
2021/04/16 10:07:33;;;;;;;;;;;;;;;;;;6144923;23;1956;-61
2021/04/16 10:10:11;;;;;;;;;;;;;;;;;;6146977;23;898;-60
2021/04/16 10:12:37;;;;;;;;;;;;;;;;;;6121088;23;855;-61
2021/04/16 10:15:16;;;;;;;;;;;;;;;;;;6121543;23;1434;-61
2021/04/16 10:17:52;;;;;;;;;;;;;;;;;;6147875;23;732;-60
2021/04/16 10:20:18;;;;;;;;;;;;;;;;;;6146647;23;826;-60
2021/04/16 10:22:44;;;;;;;;;;;;;;;;;;6148470;23;857;-60
2021/04/16 12:39:33;;;;;;;;;;;;;;;;;;6144384;23;629;-60
2021/04/16 12:41:58;;;;;;;;;;;;;;;;;;6145363;23;850;-59
2021/04/16 12:44:24;;;;;;;;;;;;;;;;;;6144447;23;815;-60
2021/04/16 12:46:49;;;;;;;;;;;;;;;;;;6144137;23;1869;-60
2021/04/16 12:49:15;;;;;;;;;;;;;;;;;;6145465;23;935;-60
2021/04/16 12:51:40;;;;;;;;;;;;;;;;;;6145975;23;967;-59
2021/04/16 12:54:06;;;;;;;;;;;;;;;;;;6145454;23;838;-60
2021/04/16 12:56:40;;;;;;;;;;;;;;;;;;6146640;23;814;-60
2021/04/16 12:59:07;;;;;;;;;;;;;;;;;;6146409;23;858;-60
2021/04/16 13:01:33;;;;;;;;;;;;;;;;;;6147052;23;829;-60
2021/04/16 13:03:59;;;;;;;;;;;;;;;;;;6146019;23;885;-60
2021/04/16 13:06:26;;;;;;;;;;;;;;;;;;6147460;23;1917;-60
2021/04/16 13:08:52;;;;;;;;;;;;;;;;;;6148133;23;850;-61
2021/04/16 13:11:18;;;;;;;;;;;;;;;;;;6147967;23;819;-60
2021/04/16 13:13:44;;;;;;;;;;;;;;;;;;6148974;23;826;-59
2021/04/16 13:16:09;;;;;;;;;;;;;;;;;;6147455;23;858;-59
2021/04/16 13:18:37;;;;;;;;;;;;;;;;;;6145128;23;885;-58
2021/04/16 13:21:05;;;;;;;;;;;;;;;;;;6119613;23;879;-58
2021/04/16 13:23:30;;;;;;;;;;;;;;;;;;6119978;23;1216;-59
2021/04/16 13:25:56;;;;;;;;;;;;;;;;;;6146415;23;1881;-59
2021/04/16 13:28:21;;;;;;;;;;;;;;;;;;6147071;23;814;-58
2021/04/16 13:30:47;;;;;;;;;;;;;;;;;;6148295;23;794;-59
2021/04/16 13:33:16;;;;;;;;;;;;;;;;;;6148948;23;826;-59
2021/04/16 13:35:43;;;;;;;;;;;;;;;;;;6149074;23;834;-59
2021/04/16 13:38:20;;;;;;;;;;;;;;;;;;6148307;23;803;-58
2021/04/16 13:40:45;;;;;;;;;;;;;;;;;;6148777;23;830;-59
2021/04/16 13:43:11;;;;;;;;;;;;;;;;;;6122027;23;862;-59
2021/04/16 13:45:39;;;;;;;;;;;;;;;;;;6147454;23;1912;-58
2021/04/16 13:48:05;;;;;;;;;;;;;;;;;;6146997;23;783;-59
2021/04/16 13:50:30;;;;;;;;;;;;;;;;;;6146879;23;1051;-58
2021/04/16 13:52:56;;;;;;;;;;;;;;;;;;6146979;23;932;-59
2021/04/16 13:55:22;;;;;;;;;;;;;;;;;;6147402;23;798;-60
2021/04/16 13:57:47;;;;;;;;;;;;;;;;;;6147198;23;909;-59
2021/04/16 14:00:15;;;;;;;;;;;;;;;;;;6148322;23;834;-59
2021/04/16 14:02:46;;;;;;;;;;;;;;;;;;6147175;23;1037;-59
2021/04/16 14:05:14;;;;;;;;;;;;;;;;;;6147923;23;878;-58
2021/04/16 14:07:41;;;;;;;;;;;;;;;;;;6121018;23;1924;-59
2021/04/16 14:10:06;;;;;;;;;;;;;;;;;;6144710;23;851;-58
2021/04/16 14:12:32;;;;;;;;;;;;;;;;;;6147122;23;846;-59
2021/04/16 14:14:57;;;;;;;;;;;;;;;;;;6147021;23;775;-58
2021/04/16 14:17:31;;;;;;;;;;;;;;;;;;6146404;23;862;-59
2021/04/16 14:20:04;;;;;;;;;;;;;;;;;;6146844;23;790;-57
2021/04/16 14:22:36;;;;;;;;;;;;;;;;;;6147503;23;850;-57
2021/04/16 14:25:03;;;;;;;;;;;;;;;;;;6147852;23;850;-58
2021/04/16 14:27:29;;;;;;;;;;;;;;;;;;6147300;23;1877;-58
2021/04/16 14:29:54;;;;;;;;;;;;;;;;;;6147791;23;857;-57
2021/04/16 14:32:21;;;;;;;;;;;;;;;;;;6147332;23;810;-58
2021/04/16 14:34:46;;;;;;;;;;;;;;;;;;6147122;23;830;-58
2021/04/16 14:37:12;;;;;;;;;;;;;;;;;;6121649;23;1513;-58
2021/04/16 14:39:37;;;;;;;;;;;;;;;;;;6147010;23;858;-58
2021/04/16 14:42:03;;;;;;;;;;;;;;;;;;6146989;23;743;-58
2021/04/16 14:44:28;;;;;;;;;;;;;;;;;;6147758;23;830;-59
2021/04/16 14:46:54;;;;;;;;;;;;;;;;;;6147135;23;1904;-58
2021/04/16 14:49:22;;;;;;;;;;;;;;;;;;6147344;23;857;-58
2021/04/16 14:51:48;;;;;;;;;;;;;;;;;;6146790;23;833;-59
2021/04/16 14:54:21;;;;;;;;;;;;;;;;;;6148280;23;770;-59
2021/04/16 14:56:46;;;;;;;;;;;;;;;;;;6146502;23;845;-58
2021/04/16 14:59:32;;;;;;;;;;;;;;;;;;6147940;23;822;-58
2021/04/16 15:01:57;;;;;;;;;;;;;;;;;;6146688;23;620;-57
2021/04/16 15:04:23;;;;;;;;;;;;;;;;;;6146494;23;837;-58
2021/04/16 15:06:53;;;;;;;;;;;;;;;;;;6146680;23;1932;-58
2021/04/16 15:09:18;;;;;;;;;;;;;;;;;;6147039;23;881;-58
2021/04/16 15:11:48;;;;;;;;;;;;;;;;;;6147114;23;854;-58
2021/04/16 15:14:32;;;;;;;;;;;;;;;;;;6147684;23;810;-58
2021/04/16 15:16:57;;;;;;;;;;;;;;;;;;6144450;23;851;-57
2021/04/16 15:19:35;;;;;;;;;;;;;;;;;;6146299;23;782;-55
2021/04/16 15:22:19;;;;;;;;;;;;;;;;;;6146043;23;819;-56
2021/04/16 15:24:47;;;;;;;;;;;;;;;;;;6147765;23;869;-56
2021/04/16 15:27:20;;;;;;;;;;;;;;;;;;6147520;23;1911;-55
2021/04/16 15:29:50;;;;;;;;;;;;;;;;;;6146731;23;822;-56
2021/04/16 15:32:17;;;;;;;;;;;;;;;;;;6119996;23;1259;-55
2021/04/16 15:48:05;;;;;;;;;;;;;;;;;;6145983;23;679;-55
2021/04/16 15:50:33;;;;;;;;;;;;;;;;;;6145752;23;854;-55
2021/04/16 15:52:58;;;;;;;;;;;;;;;;;;6145970;23;782;-60
2021/04/16 15:55:24;;;;;;;;;;;;;;;;;;6146187;23;821;-56
2021/04/16 15:57:49;;;;;;;;;;;;;;;;;;6144495;23;775;-56
2021/04/16 16:00:18;;;;;;;;;;;;;;;;;;6146462;23;835;-57
2021/04/16 16:02:43;;;;;;;;;;;;;;;;;;6147455;23;815;-55
2021/04/16 16:05:09;;;;;;;;;;;;;;;;;;6145510;23;890;-56
2021/04/16 16:07:35;;;;;;;;;;;;;;;;;;6145954;23;1893;-55
2021/04/16 16:10:01;;;;;;;;;;;;;;;;;;6145923;23;794;-58
2021/04/16 16:12:26;;;;;;;;;;;;;;;;;;6145632;23;850;-58
2021/04/16 16:14:54;;;;;;;;;;;;;;;;;;6146515;23;822;-56
2021/04/16 16:17:28;;;;;;;;;;;;;;;;;;6146113;23;802;-57
2021/04/16 16:19:54;;;;;;;;;;;;;;;;;;6145535;23;771;-58
2021/04/16 16:22:19;;;;;;;;;;;;;;;;;;6146024;23;791;-56
2021/04/16 16:24:45;;;;;;;;;;;;;;;;;;6147638;23;751;-58
2021/04/16 16:27:15;;;;;;;;;;;;;;;;;;6146278;23;1882;-56
2021/04/16 16:29:42;;;;;;;;;;;;;;;;;;6146313;23;814;-55
2021/04/16 16:32:13;;;;;;;;;;;;;;;;;;6146073;23;775;-55
2021/04/16 16:34:39;;;;;;;;;;;;;;;;;;6146275;23;822;-56
2021/04/16 16:37:05;;;;;;;;;;;;;;;;;;6145750;23;886;-55
2021/04/16 16:39:30;;;;;;;;;;;;;;;;;;6145404;23;925;-55
2021/04/16 16:41:55;;;;;;;;;;;;;;;;;;6146923;23;802;-56
2021/04/16 16:44:24;;;;;;;;;;;;;;;;;;6148067;23;798;-55
2021/04/16 16:46:51;;;;;;;;;;;;;;;;;;6147897;23;1873;-55
2021/04/16 16:49:18;;;;;;;;;;;;;;;;;;6148375;23;799;-57
2021/04/16 16:51:44;;;;;;;;;;;;;;;;;;6148688;23;850;-56
2021/04/16 16:54:09;;;;;;;;;;;;;;;;;;6148013;23;803;-56
2021/04/16 16:56:35;;;;;;;;;;;;;;;;;;6121224;23;1280;-58
2021/04/16 16:59:01;;;;;;;;;;;;;;;;;;6147621;23;874;-55
2021/04/16 17:01:27;;;;;;;;;;;;;;;;;;6147335;23;1308;-56
2021/04/16 17:03:53;;;;;;;;;;;;;;;;;;6147583;23;914;-58
2021/04/16 17:06:19;;;;;;;;;;;;;;;;;;6148060;23;1881;-56
2021/04/16 17:08:45;;;;;;;;;;;;;;;;;;6148770;23;806;-57
2021/04/16 17:11:12;;;;;;;;;;;;;;;;;;6147503;23;850;-55
2021/04/16 17:13:38;;;;;;;;;;;;;;;;;;6146901;23;868;-56
2021/04/16 17:16:05;;;;;;;;;;;;;;;;;;6147279;23;842;-57
2021/04/16 17:18:30;;;;;;;;;;;;;;;;;;6147602;23;823;-55
2021/04/16 17:20:56;;;;;;;;;;;;;;;;;;6147692;23;849;-56
2021/04/16 17:23:32;;;;;;;;;;;;;;;;;;6146977;23;930;-56
2021/04/16 17:25:58;;;;;;;;;;;;;;;;;;6120311;23;1878;-55
2021/04/16 17:28:29;;;;;;;;;;;;;;;;;;6148093;23;771;-56
2021/04/16 17:30:55;;;;;;;;;;;;;;;;;;6146691;23;810;-55
2021/04/16 17:33:22;;;;;;;;;;;;;;;;;;6147949;23;819;-55
2021/04/16 17:35:48;;;;;;;;;;;;;;;;;;6148037;23;846;-57
2021/04/16 17:38:14;;;;;;;;;;;;;;;;;;6148718;23;846;-56
2021/04/16 17:40:40;;;;;;;;;;;;;;;;;;6146927;23;849;-56
2021/04/16 17:43:10;;;;;;;;;;;;;;;;;;6147862;23;858;-56
2021/04/16 17:45:38;;;;;;;;;;;;;;;;;;6147574;23;1888;-55
2021/04/16 17:48:04;;;;;;;;;;;;;;;;;;6147413;23;843;-56
2021/04/16 17:50:29;;;;;;;;;;;;;;;;;;6148078;23;898;-55
2021/04/16 17:52:54;;;;;;;;;;;;;;;;;;6146767;23;866;-55
2021/04/16 17:55:20;;;;;;;;;;;;;;;;;;6146449;23;907;-56
2021/04/16 17:57:46;;;;;;;;;;;;;;;;;;6121471;23;1252;-55
2021/04/16 18:00:12;;;;;;;;;;;;;;;;;;6148320;23;857;-58
2021/04/16 18:02:38;;;;;;;;;;;;;;;;;;6147018;23;1136;-57
2021/04/16 18:05:04;;;;;;;;;;;;;;;;;;6146248;23;913;-55
2021/04/16 18:07:33;;;;;;;;;;;;;;;;;;6146902;23;1928;-56
2021/04/16 18:09:59;;;;;;;;;;;;;;;;;;6146520;23;811;-58
2021/04/16 18:12:25;;;;;;;;;;;;;;;;;;6147837;23;791;-56
2021/04/16 18:14:51;;;;;;;;;;;;;;;;;;6147563;23;803;-57
2021/04/16 18:17:16;;;;;;;;;;;;;;;;;;6147316;23;767;-56
2021/04/16 18:19:42;;;;;;;;;;;;;;;;;;6148240;23;854;-58
2021/04/16 18:22:26;;;;;;;;;;;;;;;;;;6147627;23;826;-55
2021/04/16 18:24:53;;;;;;;;;;;;;;;;;;6121032;23;893;-58
2021/04/16 18:27:19;;;;;;;;;;;;;;;;;;6146965;23;1861;-57
2021/04/16 18:29:45;;;;;;;;;;;;;;;;;;6147794;23;783;-56
2021/04/16 18:32:12;;;;;;;;;;;;;;;;;;6147604;23;798;-58
2021/04/16 18:34:37;;;;;;;;;;;;;;;;;;6146715;23;782;-55
2021/04/16 18:37:04;;;;;;;;;;;;;;;;;;6146204;23;798;-59
2021/04/16 18:39:35;;;;;;;;;;;;;;;;;;6146526;23;878;-58
2021/04/16 18:42:01;;;;;;;;;;;;;;;;;;6146989;23;846;-61
2021/04/16 18:44:31;;;;;;;;;;;;;;;;;;6147287;23;770;-59
2021/04/16 18:46:57;;;;;;;;;;;;;;;;;;6146812;23;1869;-59
2021/04/16 18:49:24;;;;;;;;;;;;;;;;;;6147818;23;822;-60
2021/04/16 18:51:56;;;;;;;;;;;;;;;;;;6146570;23;909;-57
2021/04/16 18:54:27;;;;;;;;;;;;;;;;;;6146458;23;866;-58
2021/04/16 18:56:53;;;;;;;;;;;;;;;;;;6120720;23;1472;-59
2021/04/16 18:59:18;;;;;;;;;;;;;;;;;;6147204;23;877;-58
2021/04/16 19:01:45;;;;;;;;;;;;;;;;;;6148298;23;866;-59
2021/04/16 19:04:10;;;;;;;;;;;;;;;;;;6146510;23;906;-59
2021/04/16 19:06:40;;;;;;;;;;;;;;;;;;6146059;23;1909;-58
2021/04/16 19:09:10;;;;;;;;;;;;;;;;;;6146681;23;759;-58
2021/04/16 19:11:36;;;;;;;;;;;;;;;;;;6146384;23;810;-57
2021/04/16 19:14:02;;;;;;;;;;;;;;;;;;6145867;23;799;-56
2021/04/16 19:16:28;;;;;;;;;;;;;;;;;;6145274;23;799;-57
2021/04/16 19:18:54;;;;;;;;;;;;;;;;;;6145724;23;903;-56
2021/04/16 19:21:22;;;;;;;;;;;;;;;;;;6145444;23;779;-56
2021/04/16 19:23:51;;;;;;;;;;;;;;;;;;6145799;23;831;-58
2021/04/16 19:26:19;;;;;;;;;;;;;;;;;;6145833;23;1905;-57
2021/04/16 19:28:46;;;;;;;;;;;;;;;;;;6146686;23;886;-57
2021/04/16 19:31:12;;;;;;;;;;;;;;;;;;6146590;23;798;-56
2021/04/16 19:33:38;;;;;;;;;;;;;;;;;;6119748;23;847;-58
2021/04/16 19:36:06;;;;;;;;;;;;;;;;;;6120019;23;1334;-56
2021/04/16 19:38:32;;;;;;;;;;;;;;;;;;6146844;23;853;-56
2021/04/16 19:40:59;;;;;;;;;;;;;;;;;;6146591;23;802;-60
2021/04/16 19:43:26;;;;;;;;;;;;;;;;;;6146594;23;799;-58
2021/04/16 19:45:52;;;;;;;;;;;;;;;;;;6146306;23;1915;-58
2021/04/16 20:17:57;;;;;;;;;;;;;;;;;;6145444;23;771;-60